sensor_id;sensor_type;location;lat;lon;timestamp;P1;durP1;ratioP1;P2;durP2;ratioP2
41343;SDS011;27089;50.022;7.604;2023-04-02T00:07:59;2.77;;;2.40;;
41343;SDS011;27089;50.022;7.604;2023-04-02T00:10:28;2.90;;;2.60;;
41343;SDS011;27089;50.022;7.604;2023-04-02T00:12:59;5.07;;;3.67;;
41343;SDS011;27089;50.022;7.604;2023-04-02T00:15:30;4.07;;;3.30;;
41343;SDS011;27089;50.022;7.604;2023-04-02T00:17:57;3.30;;;2.60;;
41343;SDS011;27089;50.022;7.604;2023-04-02T00:20:26;2.67;;;2.33;;
41343;SDS011;27089;50.022;7.604;2023-04-02T00:22:55;2.70;;;2.13;;
41343;SDS011;27089;50.022;7.604;2023-04-02T00:25:22;2.63;;;2.30;;
41343;SDS011;27089;50.022;7.604;2023-04-02T00:27:53;2.80;;;2.00;;
41343;SDS011;27089;50.022;7.604;2023-04-02T00:30:21;3.83;;;2.20;;
41343;SDS011;27089;50.022;7.604;2023-04-02T00:32:49;3.13;;;2.00;;
41343;SDS011;27089;50.022;7.604;2023-04-02T00:35:18;2.87;;;2.10;;
41343;SDS011;27089;50.022;7.604;2023-04-02T00:37:50;2.10;;;1.90;;
41343;SDS011;27089;50.022;7.604;2023-04-02T00:40:19;2.53;;;2.10;;
41343;SDS011;27089;50.022;7.604;2023-04-02T00:42:49;3.23;;;2.30;;
41343;SDS011;27089;50.022;7.604;2023-04-02T00:45:21;2.87;;;2.37;;
41343;SDS011;27089;50.022;7.604;2023-04-02T00:47:54;2.50;;;1.77;;
41343;SDS011;27089;50.022;7.604;2023-04-02T00:50:23;2.50;;;2.30;;
41343;SDS011;27089;50.022;7.604;2023-04-02T00:52:55;2.50;;;2.23;;
41343;SDS011;27089;50.022;7.604;2023-04-02T00:55:26;2.40;;;2.20;;
41343;SDS011;27089;50.022;7.604;2023-04-02T00:57:58;2.60;;;2.40;;
41343;SDS011;27089;50.022;7.604;2023-04-02T01:00:27;2.73;;;2.37;;
41343;SDS011;27089;50.022;7.604;2023-04-02T01:03:23;3.20;;;2.20;;
41343;SDS011;27089;50.022;7.604;2023-04-02T01:05:58;4.00;;;2.57;;
41343;SDS011;27089;50.022;7.604;2023-04-02T01:08:30;4.03;;;3.07;;
41343;SDS011;27089;50.022;7.604;2023-04-02T01:11:12;4.53;;;2.90;;
41343;SDS011;27089;50.022;7.604;2023-04-02T01:13:58;4.10;;;2.73;;
41343;SDS011;27089;50.022;7.604;2023-04-02T01:16:31;4.60;;;2.90;;
41343;SDS011;27089;50.022;7.604;2023-04-02T01:19:15;3.07;;;2.77;;
41343;SDS011;27089;50.022;7.604;2023-04-02T01:22:04;3.60;;;2.73;;
41343;SDS011;27089;50.022;7.604;2023-04-02T01:24:34;2.83;;;2.50;;
41343;SDS011;27089;50.022;7.604;2023-04-02T01:27:02;3.73;;;3.23;;
41343;SDS011;27089;50.022;7.604;2023-04-02T01:29:34;3.53;;;2.40;;
41343;SDS011;27089;50.022;7.604;2023-04-02T01:32:04;2.80;;;2.60;;
41343;SDS011;27089;50.022;7.604;2023-04-02T01:34:35;3.37;;;2.47;;
41343;SDS011;27089;50.022;7.604;2023-04-02T01:37:05;3.47;;;2.57;;
41343;SDS011;27089;50.022;7.604;2023-04-02T01:39:53;3.27;;;2.10;;
41343;SDS011;27089;50.022;7.604;2023-04-02T01:42:30;2.70;;;2.20;;
41343;SDS011;27089;50.022;7.604;2023-04-02T01:45:07;2.87;;;2.20;;
41343;SDS011;27089;50.022;7.604;2023-04-02T01:47:35;2.27;;;2.07;;
41343;SDS011;27089;50.022;7.604;2023-04-02T01:50:17;2.60;;;2.10;;
41343;SDS011;27089;50.022;7.604;2023-04-02T01:52:49;3.97;;;2.07;;
41343;SDS011;27089;50.022;7.604;2023-04-02T01:55:23;2.47;;;1.87;;
41343;SDS011;27089;50.022;7.604;2023-04-02T01:57:55;2.00;;;1.80;;
41343;SDS011;27089;50.022;7.604;2023-04-02T02:00:25;3.63;;;2.10;;
41343;SDS011;27089;50.022;7.604;2023-04-02T02:02:54;2.33;;;2.13;;
41343;SDS011;27089;50.022;7.604;2023-04-02T02:05:21;3.27;;;1.90;;
41343;SDS011;27089;50.022;7.604;2023-04-02T02:07:49;2.30;;;2.00;;
41343;SDS011;27089;50.022;7.604;2023-04-02T02:10:18;4.83;;;2.20;;
41343;SDS011;27089;50.022;7.604;2023-04-02T02:12:49;2.60;;;2.17;;
41343;SDS011;27089;50.022;7.604;2023-04-02T02:15:17;3.30;;;1.70;;
41343;SDS011;27089;50.022;7.604;2023-04-02T02:17:48;4.10;;;1.93;;
41343;SDS011;27089;50.022;7.604;2023-04-02T02:20:19;1.97;;;1.70;;
41343;SDS011;27089;50.022;7.604;2023-04-02T02:22:47;2.57;;;2.30;;
41343;SDS011;27089;50.022;7.604;2023-04-02T02:25:17;3.80;;;2.23;;
41343;SDS011;27089;50.022;7.604;2023-04-02T02:27:47;2.53;;;2.00;;
41343;SDS011;27089;50.022;7.604;2023-04-02T02:30:29;3.63;;;2.17;;
41343;SDS011;27089;50.022;7.604;2023-04-02T02:33:02;3.00;;;2.17;;
41343;SDS011;27089;50.022;7.604;2023-04-02T02:35:33;3.13;;;2.20;;
41343;SDS011;27089;50.022;7.604;2023-04-02T02:41:06;2.87;;;2.10;;
41343;SDS011;27089;50.022;7.604;2023-04-02T02:43:40;2.57;;;2.00;;
41343;SDS011;27089;50.022;7.604;2023-04-02T02:46:13;2.30;;;2.00;;
41343;SDS011;27089;50.022;7.604;2023-04-02T02:48:44;2.93;;;1.90;;
41343;SDS011;27089;50.022;7.604;2023-04-02T02:51:15;2.93;;;2.00;;
41343;SDS011;27089;50.022;7.604;2023-04-02T02:53:47;2.43;;;1.80;;
41343;SDS011;27089;50.022;7.604;2023-04-02T02:56:17;2.17;;;1.60;;
41343;SDS011;27089;50.022;7.604;2023-04-02T02:58:45;3.53;;;2.57;;
41343;SDS011;27089;50.022;7.604;2023-04-02T03:01:13;2.43;;;2.23;;
41343;SDS011;27089;50.022;7.604;2023-04-02T03:03:40;2.43;;;2.23;;
41343;SDS011;27089;50.022;7.604;2023-04-02T03:06:10;2.50;;;2.30;;
41343;SDS011;27089;50.022;7.604;2023-04-02T03:08:42;3.40;;;2.43;;
41343;SDS011;27089;50.022;7.604;2023-04-02T03:11:13;2.60;;;2.40;;
41343;SDS011;27089;50.022;7.604;2023-04-02T03:13:45;2.80;;;2.53;;
41343;SDS011;27089;50.022;7.604;2023-04-02T03:16:17;2.87;;;2.50;;
41343;SDS011;27089;50.022;7.604;2023-04-02T03:18:49;2.70;;;2.50;;
41343;SDS011;27089;50.022;7.604;2023-04-02T03:21:23;2.90;;;2.10;;
41343;SDS011;27089;50.022;7.604;2023-04-02T03:23:55;3.53;;;2.43;;
41343;SDS011;27089;50.022;7.604;2023-04-02T03:26:26;2.83;;;2.57;;
41343;SDS011;27089;50.022;7.604;2023-04-02T03:28:58;2.80;;;2.53;;
41343;SDS011;27089;50.022;7.604;2023-04-02T03:31:31;3.50;;;3.20;;
41343;SDS011;27089;50.022;7.604;2023-04-02T03:34:03;4.40;;;3.23;;
41343;SDS011;27089;50.022;7.604;2023-04-02T03:36:37;3.37;;;3.07;;
41343;SDS011;27089;50.022;7.604;2023-04-02T03:39:11;4.27;;;3.87;;
41343;SDS011;27089;50.022;7.604;2023-04-02T03:41:43;4.17;;;3.77;;
41343;SDS011;27089;50.022;7.604;2023-04-02T03:44:16;3.67;;;3.37;;
41343;SDS011;27089;50.022;7.604;2023-04-02T03:46:48;5.00;;;3.57;;
41343;SDS011;27089;50.022;7.604;2023-04-02T03:49:23;4.63;;;3.03;;
41343;SDS011;27089;50.022;7.604;2023-04-02T03:51:58;3.17;;;2.77;;
41343;SDS011;27089;50.022;7.604;2023-04-02T03:54:28;2.80;;;2.60;;
41343;SDS011;27089;50.022;7.604;2023-04-02T03:56:56;3.00;;;2.30;;
41343;SDS011;27089;50.022;7.604;2023-04-02T03:59:27;2.50;;;2.30;;
41343;SDS011;27089;50.022;7.604;2023-04-02T04:02:05;2.77;;;2.30;;
41343;SDS011;27089;50.022;7.604;2023-04-02T04:04:41;4.90;;;2.73;;
41343;SDS011;27089;50.022;7.604;2023-04-02T04:07:13;4.67;;;2.63;;
41343;SDS011;27089;50.022;7.604;2023-04-02T04:09:46;3.93;;;3.40;;
41343;SDS011;27089;50.022;7.604;2023-04-02T04:12:19;4.40;;;3.03;;
41343;SDS011;27089;50.022;7.604;2023-04-02T04:14:53;3.70;;;3.30;;
41343;SDS011;27089;50.022;7.604;2023-04-02T04:17:24;7.90;;;4.10;;
41343;SDS011;27089;50.022;7.604;2023-04-02T04:20:00;7.53;;;5.40;;
41343;SDS011;27089;50.022;7.604;2023-04-02T04:22:33;9.37;;;6.20;;
41343;SDS011;27089;50.022;7.604;2023-04-02T04:25:01;10.53;;;7.43;;
41343;SDS011;27089;50.022;7.604;2023-04-02T04:27:30;6.13;;;4.43;;
41343;SDS011;27089;50.022;7.604;2023-04-02T04:30:03;3.90;;;3.30;;
41343;SDS011;27089;50.022;7.604;2023-04-02T04:32:44;4.33;;;3.00;;
41343;SDS011;27089;50.022;7.604;2023-04-02T04:35:14;3.17;;;2.87;;
41343;SDS011;27089;50.022;7.604;2023-04-02T04:37:49;3.80;;;3.00;;
41343;SDS011;27089;50.022;7.604;2023-04-02T04:40:23;6.20;;;4.90;;
41343;SDS011;27089;50.022;7.604;2023-04-02T04:42:53;3.93;;;2.93;;
41343;SDS011;27089;50.022;7.604;2023-04-02T04:45:29;5.47;;;3.90;;
41343;SDS011;27089;50.022;7.604;2023-04-02T04:48:03;3.83;;;2.90;;
41343;SDS011;27089;50.022;7.604;2023-04-02T04:50:36;3.80;;;3.30;;
41343;SDS011;27089;50.022;7.604;2023-04-02T04:53:14;4.13;;;3.33;;
41343;SDS011;27089;50.022;7.604;2023-04-02T04:55:45;4.50;;;2.90;;
41343;SDS011;27089;50.022;7.604;2023-04-02T04:58:17;5.33;;;3.17;;
41343;SDS011;27089;50.022;7.604;2023-04-02T05:00:50;6.37;;;3.30;;
41343;SDS011;27089;50.022;7.604;2023-04-02T05:03:25;4.43;;;2.90;;
41343;SDS011;27089;50.022;7.604;2023-04-02T05:06:00;3.67;;;3.00;;
41343;SDS011;27089;50.022;7.604;2023-04-02T05:08:35;4.17;;;3.30;;
41343;SDS011;27089;50.022;7.604;2023-04-02T05:11:08;4.57;;;3.67;;
41343;SDS011;27089;50.022;7.604;2023-04-02T05:13:39;3.87;;;3.27;;
41343;SDS011;27089;50.022;7.604;2023-04-02T05:16:14;3.67;;;3.00;;
41343;SDS011;27089;50.022;7.604;2023-04-02T05:18:45;3.53;;;3.20;;
41343;SDS011;27089;50.022;7.604;2023-04-02T05:21:18;3.57;;;3.23;;
41343;SDS011;27089;50.022;7.604;2023-04-02T05:23:52;4.70;;;3.37;;
41343;SDS011;27089;50.022;7.604;2023-04-02T05:26:23;3.93;;;3.27;;
41343;SDS011;27089;50.022;7.604;2023-04-02T05:28:54;5.20;;;3.60;;
41343;SDS011;27089;50.022;7.604;2023-04-02T05:31:26;4.07;;;3.30;;
41343;SDS011;27089;50.022;7.604;2023-04-02T05:33:56;4.00;;;3.60;;
41343;SDS011;27089;50.022;7.604;2023-04-02T05:36:24;4.47;;;3.70;;
41343;SDS011;27089;50.022;7.604;2023-04-02T05:38:56;13.53;;;11.40;;
41343;SDS011;27089;50.022;7.604;2023-04-02T05:41:24;8.37;;;6.53;;
41343;SDS011;27089;50.022;7.604;2023-04-02T05:43:56;10.00;;;8.47;;
41343;SDS011;27089;50.022;7.604;2023-04-02T05:46:29;7.90;;;6.70;;
41343;SDS011;27089;50.022;7.604;2023-04-02T05:49:01;9.60;;;7.83;;
41343;SDS011;27089;50.022;7.604;2023-04-02T05:51:34;8.50;;;7.10;;
41343;SDS011;27089;50.022;7.604;2023-04-02T05:54:11;11.60;;;7.80;;
41343;SDS011;27089;50.022;7.604;2023-04-02T05:56:47;6.83;;;4.97;;
41343;SDS011;27089;50.022;7.604;2023-04-02T05:59:19;4.60;;;3.60;;
41343;SDS011;27089;50.022;7.604;2023-04-02T06:01:50;4.77;;;3.00;;
41343;SDS011;27089;50.022;7.604;2023-04-02T06:04:24;5.97;;;3.43;;
41343;SDS011;27089;50.022;7.604;2023-04-02T06:06:58;3.73;;;3.30;;
41343;SDS011;27089;50.022;7.604;2023-04-02T06:09:35;6.97;;;4.33;;
41343;SDS011;27089;50.022;7.604;2023-04-02T06:12:09;9.83;;;7.20;;
41343;SDS011;27089;50.022;7.604;2023-04-02T06:14:42;9.37;;;6.77;;
41343;SDS011;27089;50.022;7.604;2023-04-02T06:17:10;13.80;;;8.87;;
41343;SDS011;27089;50.022;7.604;2023-04-02T06:19:41;23.10;;;12.17;;
41343;SDS011;27089;50.022;7.604;2023-04-02T06:22:14;7.47;;;5.60;;
41343;SDS011;27089;50.022;7.604;2023-04-02T06:24:48;7.47;;;4.70;;
41343;SDS011;27089;50.022;7.604;2023-04-02T06:27:20;9.43;;;4.47;;
41343;SDS011;27089;50.022;7.604;2023-04-02T06:29:50;6.07;;;4.10;;
41343;SDS011;27089;50.022;7.604;2023-04-02T06:32:22;5.10;;;4.33;;
41343;SDS011;27089;50.022;7.604;2023-04-02T06:34:51;4.23;;;3.83;;
41343;SDS011;27089;50.022;7.604;2023-04-02T06:37:20;4.23;;;3.83;;
41343;SDS011;27089;50.022;7.604;2023-04-02T06:39:54;4.30;;;3.77;;
41343;SDS011;27089;50.022;7.604;2023-04-02T06:42:22;4.60;;;4.03;;
41343;SDS011;27089;50.022;7.604;2023-04-02T06:44:52;4.80;;;3.37;;
41343;SDS011;27089;50.022;7.604;2023-04-02T06:47:25;3.83;;;3.40;;
41343;SDS011;27089;50.022;7.604;2023-04-02T06:49:57;3.90;;;3.57;;
41343;SDS011;27089;50.022;7.604;2023-04-02T06:52:31;5.40;;;4.23;;
41343;SDS011;27089;50.022;7.604;2023-04-02T06:55:05;4.77;;;3.60;;
41343;SDS011;27089;50.022;7.604;2023-04-02T06:57:46;4.97;;;4.20;;
41343;SDS011;27089;50.022;7.604;2023-04-02T07:00:16;4.90;;;3.63;;
41343;SDS011;27089;50.022;7.604;2023-04-02T07:02:50;4.60;;;3.93;;
41343;SDS011;27089;50.022;7.604;2023-04-02T07:05:18;4.87;;;4.13;;
41343;SDS011;27089;50.022;7.604;2023-04-02T07:07:45;4.87;;;3.90;;
41343;SDS011;27089;50.022;7.604;2023-04-02T07:10:13;7.10;;;4.30;;
41343;SDS011;27089;50.022;7.604;2023-04-02T07:12:40;5.97;;;4.57;;
41343;SDS011;27089;50.022;7.604;2023-04-02T07:15:08;5.23;;;4.03;;
41343;SDS011;27089;50.022;7.604;2023-04-02T07:17:39;4.33;;;3.70;;
41343;SDS011;27089;50.022;7.604;2023-04-02T07:20:08;4.27;;;3.53;;
41343;SDS011;27089;50.022;7.604;2023-04-02T07:22:50;4.63;;;3.60;;
41343;SDS011;27089;50.022;7.604;2023-04-02T07:25:18;2.80;;;2.50;;
41343;SDS011;27089;50.022;7.604;2023-04-02T07:27:45;2.07;;;1.13;;
41343;SDS011;27089;50.022;7.604;2023-04-02T07:30:12;1.20;;;1.10;;
41343;SDS011;27089;50.022;7.604;2023-04-02T07:32:39;1.30;;;1.10;;
41343;SDS011;27089;50.022;7.604;2023-04-02T07:35:07;1.10;;;0.90;;
41343;SDS011;27089;50.022;7.604;2023-04-02T07:37:35;1.00;;;0.90;;
41343;SDS011;27089;50.022;7.604;2023-04-02T07:40:03;0.73;;;0.70;;
41343;SDS011;27089;50.022;7.604;2023-04-02T07:42:34;1.87;;;1.00;;
41343;SDS011;27089;50.022;7.604;2023-04-02T07:45:01;1.10;;;0.97;;
41343;SDS011;27089;50.022;7.604;2023-04-02T07:47:28;0.90;;;0.80;;
41343;SDS011;27089;50.022;7.604;2023-04-02T07:49:55;1.50;;;1.23;;
41343;SDS011;27089;50.022;7.604;2023-04-02T07:52:22;1.50;;;1.40;;
41343;SDS011;27089;50.022;7.604;2023-04-02T07:54:49;1.40;;;1.30;;
41343;SDS011;27089;50.022;7.604;2023-04-02T07:57:16;1.97;;;1.73;;
41343;SDS011;27089;50.022;7.604;2023-04-02T07:59:45;1.70;;;1.60;;
41343;SDS011;27089;50.022;7.604;2023-04-02T08:02:17;8.77;;;5.33;;
41343;SDS011;27089;50.022;7.604;2023-04-02T08:04:45;10.13;;;6.67;;
41343;SDS011;27089;50.022;7.604;2023-04-02T08:07:13;4.03;;;2.70;;
41343;SDS011;27089;50.022;7.604;2023-04-02T08:09:40;4.00;;;3.33;;
41343;SDS011;27089;50.022;7.604;2023-04-02T08:12:08;8.27;;;6.93;;
41343;SDS011;27089;50.022;7.604;2023-04-02T08:14:37;7.33;;;6.20;;
41343;SDS011;27089;50.022;7.604;2023-04-02T08:17:05;3.57;;;3.17;;
41343;SDS011;27089;50.022;7.604;2023-04-02T08:19:32;4.63;;;3.93;;
41343;SDS011;27089;50.022;7.604;2023-04-02T08:21:59;2.50;;;2.30;;
41343;SDS011;27089;50.022;7.604;2023-04-02T08:24:26;8.20;;;5.97;;
41343;SDS011;27089;50.022;7.604;2023-04-02T08:26:53;4.47;;;3.90;;
41343;SDS011;27089;50.022;7.604;2023-04-02T08:29:20;2.23;;;2.03;;
41343;SDS011;27089;50.022;7.604;2023-04-02T08:31:48;2.30;;;2.10;;
41343;SDS011;27089;50.022;7.604;2023-04-02T08:34:16;2.83;;;2.50;;
41343;SDS011;27089;50.022;7.604;2023-04-02T08:36:43;6.37;;;4.53;;
41343;SDS011;27089;50.022;7.604;2023-04-02T08:39:10;4.03;;;3.00;;
41343;SDS011;27089;50.022;7.604;2023-04-02T08:41:39;4.37;;;3.13;;
41343;SDS011;27089;50.022;7.604;2023-04-02T08:44:14;3.07;;;2.20;;
41343;SDS011;27089;50.022;7.604;2023-04-02T08:46:50;4.40;;;2.97;;
41343;SDS011;27089;50.022;7.604;2023-04-02T08:49:23;3.80;;;3.40;;
41343;SDS011;27089;50.022;7.604;2023-04-02T08:51:55;2.97;;;2.40;;
41343;SDS011;27089;50.022;7.604;2023-04-02T08:54:24;2.30;;;2.10;;
41343;SDS011;27089;50.022;7.604;2023-04-02T08:56:54;2.57;;;2.03;;
41343;SDS011;27089;50.022;7.604;2023-04-02T08:59:25;2.47;;;2.27;;
41343;SDS011;27089;50.022;7.604;2023-04-02T09:01:59;2.53;;;2.30;;
41343;SDS011;27089;50.022;7.604;2023-04-02T09:04:34;1.83;;;1.73;;
41343;SDS011;27089;50.022;7.604;2023-04-02T09:07:02;2.17;;;1.97;;
41343;SDS011;27089;50.022;7.604;2023-04-02T09:09:30;2.20;;;2.00;;
41343;SDS011;27089;50.022;7.604;2023-04-02T09:12:03;2.57;;;2.37;;
41343;SDS011;27089;50.022;7.604;2023-04-02T09:14:34;2.23;;;1.83;;
41343;SDS011;27089;50.022;7.604;2023-04-02T09:17:10;1.60;;;1.50;;
41343;SDS011;27089;50.022;7.604;2023-04-02T09:19:45;1.20;;;1.10;;
41343;SDS011;27089;50.022;7.604;2023-04-02T09:22:19;1.23;;;1.13;;
41343;SDS011;27089;50.022;7.604;2023-04-02T09:24:50;1.00;;;0.90;;
41343;SDS011;27089;50.022;7.604;2023-04-02T09:27:17;0.70;;;0.67;;
41343;SDS011;27089;50.022;7.604;2023-04-02T09:29:46;0.90;;;0.80;;
41343;SDS011;27089;50.022;7.604;2023-04-02T09:32:20;0.70;;;0.70;;
41343;SDS011;27089;50.022;7.604;2023-04-02T09:35:10;0.97;;;0.70;;
41343;SDS011;27089;50.022;7.604;2023-04-02T09:37:39;0.60;;;0.60;;
41343;SDS011;27089;50.022;7.604;2023-04-02T09:40:09;0.67;;;0.60;;
41343;SDS011;27089;50.022;7.604;2023-04-02T09:42:42;0.50;;;0.50;;
41343;SDS011;27089;50.022;7.604;2023-04-02T09:45:13;0.53;;;0.53;;
41343;SDS011;27089;50.022;7.604;2023-04-02T09:47:44;0.80;;;0.73;;
41343;SDS011;27089;50.022;7.604;2023-04-02T09:52:56;0.70;;;0.70;;
41343;SDS011;27089;50.022;7.604;2023-04-02T09:55:24;0.70;;;0.50;;
41343;SDS011;27089;50.022;7.604;2023-04-02T09:58:06;0.83;;;0.83;;
41343;SDS011;27089;50.022;7.604;2023-04-02T10:00:36;0.97;;;0.90;;
41343;SDS011;27089;50.022;7.604;2023-04-02T10:03:06;1.00;;;0.90;;
41343;SDS011;27089;50.022;7.604;2023-04-02T10:05:48;4.43;;;0.80;;
41343;SDS011;27089;50.022;7.604;2023-04-02T10:08:28;1.00;;;0.90;;
41343;SDS011;27089;50.022;7.604;2023-04-02T10:10:58;1.10;;;1.00;;
41343;SDS011;27089;50.022;7.604;2023-04-02T10:13:27;0.80;;;0.80;;
41343;SDS011;27089;50.022;7.604;2023-04-02T10:15:59;1.30;;;0.90;;
41343;SDS011;27089;50.022;7.604;2023-04-02T10:18:36;0.80;;;0.80;;
41343;SDS011;27089;50.022;7.604;2023-04-02T10:21:10;0.90;;;0.90;;
41343;SDS011;27089;50.022;7.604;2023-04-02T10:23:40;1.23;;;1.10;;
41343;SDS011;27089;50.022;7.604;2023-04-02T10:26:16;0.80;;;0.80;;
41343;SDS011;27089;50.022;7.604;2023-04-02T10:29:02;1.30;;;1.20;;
41343;SDS011;27089;50.022;7.604;2023-04-02T10:31:43;1.30;;;1.10;;
41343;SDS011;27089;50.022;7.604;2023-04-02T10:34:19;1.10;;;1.00;;
41343;SDS011;27089;50.022;7.604;2023-04-02T10:36:51;2.30;;;1.20;;
41343;SDS011;27089;50.022;7.604;2023-04-02T10:39:22;0.80;;;0.80;;
41343;SDS011;27089;50.022;7.604;2023-04-02T10:41:56;1.40;;;0.90;;
41343;SDS011;27089;50.022;7.604;2023-04-02T10:44:36;1.60;;;1.50;;
41343;SDS011;27089;50.022;7.604;2023-04-02T10:47:18;1.23;;;1.13;;
41343;SDS011;27089;50.022;7.604;2023-04-02T10:49:54;1.37;;;1.27;;
41343;SDS011;27089;50.022;7.604;2023-04-02T10:52:32;1.80;;;1.57;;
41343;SDS011;27089;50.022;7.604;2023-04-02T10:55:01;1.80;;;1.70;;
41343;SDS011;27089;50.022;7.604;2023-04-02T10:57:38;1.87;;;1.50;;
41343;SDS011;27089;50.022;7.604;2023-04-02T11:00:12;1.50;;;1.40;;
41343;SDS011;27089;50.022;7.604;2023-04-02T11:02:45;1.67;;;1.57;;
41343;SDS011;27089;50.022;7.604;2023-04-02T11:05:20;1.40;;;1.30;;
41343;SDS011;27089;50.022;7.604;2023-04-02T11:07:59;2.00;;;1.80;;
41343;SDS011;27089;50.022;7.604;2023-04-02T11:10:29;1.63;;;1.53;;
41343;SDS011;27089;50.022;7.604;2023-04-02T11:13:00;2.00;;;1.80;;
41343;SDS011;27089;50.022;7.604;2023-04-02T11:15:32;2.70;;;1.87;;
41343;SDS011;27089;50.022;7.604;2023-04-02T11:18:01;2.73;;;1.40;;
41343;SDS011;27089;50.022;7.604;2023-04-02T11:20:41;2.00;;;1.57;;
41343;SDS011;27089;50.022;7.604;2023-04-02T11:23:32;1.87;;;1.73;;
41343;SDS011;27089;50.022;7.604;2023-04-02T11:29:05;1.50;;;1.40;;
41343;SDS011;27089;50.022;7.604;2023-04-02T11:31:40;1.70;;;1.20;;
41343;SDS011;27089;50.022;7.604;2023-04-02T11:34:55;1.40;;;1.20;;
41343;SDS011;27089;50.022;7.604;2023-04-02T11:37:30;1.50;;;1.40;;
41343;SDS011;27089;50.022;7.604;2023-04-02T11:40:01;2.00;;;1.70;;
41343;SDS011;27089;50.022;7.604;2023-04-02T11:42:32;1.67;;;1.57;;
41343;SDS011;27089;50.022;7.604;2023-04-02T11:50:52;2.00;;;1.73;;
41343;SDS011;27089;50.022;7.604;2023-04-02T11:53:19;2.10;;;1.90;;
41343;SDS011;27089;50.022;7.604;2023-04-02T11:58:45;2.87;;;2.50;;
41343;SDS011;27089;50.022;7.604;2023-04-02T12:01:29;2.30;;;2.10;;
41343;SDS011;27089;50.022;7.604;2023-04-02T12:04:34;3.40;;;2.00;;
41343;SDS011;27089;50.022;7.604;2023-04-02T12:07:29;2.80;;;2.03;;
41343;SDS011;27089;50.022;7.604;2023-04-02T12:10:18;2.60;;;2.20;;
41343;SDS011;27089;50.022;7.604;2023-04-02T12:12:47;3.00;;;2.47;;
41343;SDS011;27089;50.022;7.604;2023-04-02T12:15:31;2.70;;;2.50;;
41343;SDS011;27089;50.022;7.604;2023-04-02T12:18:10;2.80;;;2.50;;
41343;SDS011;27089;50.022;7.604;2023-04-02T12:20:40;3.27;;;2.80;;
41343;SDS011;27089;50.022;7.604;2023-04-02T12:23:14;2.73;;;2.50;;
41343;SDS011;27089;50.022;7.604;2023-04-02T12:25:45;2.90;;;2.63;;
41343;SDS011;27089;50.022;7.604;2023-04-02T12:28:22;6.60;;;2.67;;
41343;SDS011;27089;50.022;7.604;2023-04-02T12:30:49;2.93;;;2.17;;
41343;SDS011;27089;50.022;7.604;2023-04-02T12:33:28;2.60;;;2.40;;
41343;SDS011;27089;50.022;7.604;2023-04-02T12:35:58;2.80;;;2.50;;
41343;SDS011;27089;50.022;7.604;2023-04-02T12:38:27;2.50;;;2.30;;
41343;SDS011;27089;50.022;7.604;2023-04-02T12:40:55;2.53;;;2.33;;
41343;SDS011;27089;50.022;7.604;2023-04-02T12:43:26;2.50;;;2.30;;
41343;SDS011;27089;50.022;7.604;2023-04-02T12:45:55;2.67;;;2.30;;
41343;SDS011;27089;50.022;7.604;2023-04-02T12:48:24;2.50;;;2.30;;
41343;SDS011;27089;50.022;7.604;2023-04-02T12:50:52;2.57;;;2.37;;
41343;SDS011;27089;50.022;7.604;2023-04-02T12:53:20;3.07;;;2.73;;
41343;SDS011;27089;50.022;7.604;2023-04-02T12:55:50;2.80;;;2.57;;
41343;SDS011;27089;50.022;7.604;2023-04-02T12:58:26;3.37;;;2.60;;
41343;SDS011;27089;50.022;7.604;2023-04-02T13:01:08;2.63;;;2.30;;
41343;SDS011;27089;50.022;7.604;2023-04-02T13:03:36;3.00;;;2.70;;
41343;SDS011;27089;50.022;7.604;2023-04-02T13:06:03;2.80;;;2.50;;
41343;SDS011;27089;50.022;7.604;2023-04-02T13:08:47;2.57;;;2.37;;
41343;SDS011;27089;50.022;7.604;2023-04-02T13:11:14;2.70;;;2.50;;
41343;SDS011;27089;50.022;7.604;2023-04-02T13:13:43;3.30;;;2.53;;
41343;SDS011;27089;50.022;7.604;2023-04-02T13:16:24;6.50;;;5.30;;
41343;SDS011;27089;50.022;7.604;2023-04-02T13:19:07;5.07;;;3.17;;
41343;SDS011;27089;50.022;7.604;2023-04-02T13:21:36;4.83;;;3.53;;
41343;SDS011;27089;50.022;7.604;2023-04-02T13:24:04;3.43;;;2.83;;
41343;SDS011;27089;50.022;7.604;2023-04-02T13:26:40;4.17;;;3.77;;
41343;SDS011;27089;50.022;7.604;2023-04-02T13:29:15;9.60;;;7.17;;
41343;SDS011;27089;50.022;7.604;2023-04-02T13:31:45;3.63;;;3.17;;
41343;SDS011;27089;50.022;7.604;2023-04-02T13:34:12;2.90;;;2.60;;
41343;SDS011;27089;50.022;7.604;2023-04-02T13:36:40;3.80;;;2.60;;
41343;SDS011;27089;50.022;7.604;2023-04-02T13:39:06;3.67;;;3.10;;
41343;SDS011;27089;50.022;7.604;2023-04-02T13:41:36;3.20;;;2.90;;
41343;SDS011;27089;50.022;7.604;2023-04-02T13:44:11;3.53;;;2.73;;
41343;SDS011;27089;50.022;7.604;2023-04-02T13:46:45;3.27;;;2.90;;
41343;SDS011;27089;50.022;7.604;2023-04-02T13:49:12;4.93;;;3.00;;
41343;SDS011;27089;50.022;7.604;2023-04-02T13:51:40;2.73;;;2.50;;
41343;SDS011;27089;50.022;7.604;2023-04-02T13:54:12;2.90;;;2.67;;
41343;SDS011;27089;50.022;7.604;2023-04-02T13:56:43;3.20;;;2.23;;
41343;SDS011;27089;50.022;7.604;2023-04-02T13:59:10;2.83;;;2.63;;
41343;SDS011;27089;50.022;7.604;2023-04-02T14:01:39;2.73;;;2.53;;
41343;SDS011;27089;50.022;7.604;2023-04-02T14:04:08;2.83;;;2.33;;
41343;SDS011;27089;50.022;7.604;2023-04-02T14:09:37;3.00;;;2.67;;
41343;SDS011;27089;50.022;7.604;2023-04-02T14:12:16;2.90;;;2.60;;
41343;SDS011;27089;50.022;7.604;2023-04-02T14:14:55;3.20;;;2.20;;
41343;SDS011;27089;50.022;7.604;2023-04-02T14:17:40;3.70;;;2.90;;
41343;SDS011;27089;50.022;7.604;2023-04-02T14:20:18;3.10;;;2.80;;
41343;SDS011;27089;50.022;7.604;2023-04-02T14:25:47;3.63;;;2.73;;
41343;SDS011;27089;50.022;7.604;2023-04-02T14:28:23;2.83;;;2.50;;
41343;SDS011;27089;50.022;7.604;2023-04-02T14:31:03;3.37;;;2.47;;
41343;SDS011;27089;50.022;7.604;2023-04-02T14:33:40;3.77;;;2.83;;
41343;SDS011;27089;50.022;7.604;2023-04-02T14:36:15;2.63;;;2.43;;
41343;SDS011;27089;50.022;7.604;2023-04-02T14:38:49;2.70;;;2.20;;
41343;SDS011;27089;50.022;7.604;2023-04-02T14:41:22;3.20;;;2.70;;
41343;SDS011;27089;50.022;7.604;2023-04-02T14:43:55;3.00;;;2.27;;
41343;SDS011;27089;50.022;7.604;2023-04-02T14:46:26;2.53;;;2.00;;
41343;SDS011;27089;50.022;7.604;2023-04-02T14:48:57;2.60;;;2.03;;
41343;SDS011;27089;50.022;7.604;2023-04-02T14:51:29;2.60;;;2.40;;
41343;SDS011;27089;50.022;7.604;2023-04-02T14:54:01;2.97;;;2.20;;
41343;SDS011;27089;50.022;7.604;2023-04-02T14:56:35;3.27;;;2.40;;
41343;SDS011;27089;50.022;7.604;2023-04-02T15:01:56;2.53;;;2.13;;
41343;SDS011;27089;50.022;7.604;2023-04-02T15:04:30;2.37;;;2.03;;
41343;SDS011;27089;50.022;7.604;2023-04-02T15:07:00;2.70;;;2.50;;
41343;SDS011;27089;50.022;7.604;2023-04-02T15:09:31;2.43;;;2.17;;
41343;SDS011;27089;50.022;7.604;2023-04-02T15:12:02;3.43;;;2.13;;
41343;SDS011;27089;50.022;7.604;2023-04-02T15:14:35;2.40;;;2.03;;
41343;SDS011;27089;50.022;7.604;2023-04-02T15:17:08;6.93;;;4.57;;
41343;SDS011;27089;50.022;7.604;2023-04-02T15:19:37;2.83;;;2.50;;
41343;SDS011;27089;50.022;7.604;2023-04-02T15:22:07;2.90;;;2.23;;
41343;SDS011;27089;50.022;7.604;2023-04-02T15:24:46;2.60;;;2.40;;
41343;SDS011;27089;50.022;7.604;2023-04-02T15:27:24;2.30;;;2.10;;
41343;SDS011;27089;50.022;7.604;2023-04-02T15:30:00;2.40;;;2.00;;
41343;SDS011;27089;50.022;7.604;2023-04-02T15:32:35;3.07;;;2.40;;
41343;SDS011;27089;50.022;7.604;2023-04-02T15:35:08;3.13;;;2.83;;
41343;SDS011;27089;50.022;7.604;2023-04-02T15:37:44;3.53;;;2.23;;
41343;SDS011;27089;50.022;7.604;2023-04-02T15:40:17;4.43;;;3.50;;
41343;SDS011;27089;50.022;7.604;2023-04-02T15:43:05;4.47;;;2.67;;
41343;SDS011;27089;50.022;7.604;2023-04-02T15:45:44;4.07;;;3.10;;
41343;SDS011;27089;50.022;7.604;2023-04-02T15:48:36;4.10;;;3.47;;
41343;SDS011;27089;50.022;7.604;2023-04-02T15:51:27;4.37;;;3.50;;
41343;SDS011;27089;50.022;7.604;2023-04-02T15:54:02;4.37;;;3.20;;